sensor_id;sensor_type;location;lat;lon;timestamp;temperature;humidity
31084;DHT22;36333;51.382;0.016;2022-12-07T00:01:42;4.80;99.90
31084;DHT22;36333;51.382;0.016;2022-12-07T00:04:12;5.80;99.90
31084;DHT22;36333;51.382;0.016;2022-12-07T00:06:41;5.00;99.90
31084;DHT22;36333;51.382;0.016;2022-12-07T00:09:12;6.10;99.90
31084;DHT22;36333;51.382;0.016;2022-12-07T00:11:40;5.20;99.90
31084;DHT22;36333;51.382;0.016;2022-12-07T00:14:12;7.00;99.90
31084;DHT22;36333;51.382;0.016;2022-12-07T00:16:40;4.90;99.90
31084;DHT22;36333;51.382;0.016;2022-12-07T00:19:10;4.80;99.90
31084;DHT22;36333;51.382;0.016;2022-12-07T00:21:37;4.80;99.90
31084;DHT22;36333;51.382;0.016;2022-12-07T00:24:06;4.80;99.90
31084;DHT22;36333;51.382;0.016;2022-12-07T00:26:34;4.80;99.90
31084;DHT22;36333;51.382;0.016;2022-12-07T00:29:09;4.80;99.90
31084;DHT22;36333;51.382;0.016;2022-12-07T00:31:38;4.80;99.90
31084;DHT22;36333;51.382;0.016;2022-12-07T00:34:07;6.40;99.90
31084;DHT22;36333;51.382;0.016;2022-12-07T00:36:38;4.80;99.90
31084;DHT22;36333;51.382;0.016;2022-12-07T00:39:06;5.30;99.90
31084;DHT22;36333;51.382;0.016;2022-12-07T00:41:34;5.30;99.90
31084;DHT22;36333;51.382;0.016;2022-12-07T00:44:02;4.80;99.90
31084;DHT22;36333;51.382;0.016;2022-12-07T00:46:30;6.00;99.90
31084;DHT22;36333;51.382;0.016;2022-12-07T00:48:57;4.80;99.90
31084;DHT22;36333;51.382;0.016;2022-12-07T00:51:25;4.80;99.90
31084;DHT22;36333;51.382;0.016;2022-12-07T00:53:53;4.80;99.90
31084;DHT22;36333;51.382;0.016;2022-12-07T00:56:25;4.80;99.90
31084;DHT22;36333;51.382;0.016;2022-12-07T01:01:24;4.70;99.90
31084;DHT22;36333;51.382;0.016;2022-12-07T01:03:52;5.80;99.90
31084;DHT22;36333;51.382;0.016;2022-12-07T01:06:21;4.60;99.90
31084;DHT22;36333;51.382;0.016;2022-12-07T01:08:49;4.60;99.90
31084;DHT22;36333;51.382;0.016;2022-12-07T01:11:19;4.60;99.90
31084;DHT22;36333;51.382;0.016;2022-12-07T01:13:50;4.50;99.90
31084;DHT22;36333;51.382;0.016;2022-12-07T01:16:18;4.50;99.90
31084;DHT22;36333;51.382;0.016;2022-12-07T01:18:48;4.50;99.90
31084;DHT22;36333;51.382;0.016;2022-12-07T01:21:18;4.50;99.90
31084;DHT22;36333;51.382;0.016;2022-12-07T01:23:48;4.50;99.90
31084;DHT22;36333;51.382;0.016;2022-12-07T01:26:18;4.40;99.90
31084;DHT22;36333;51.382;0.016;2022-12-07T01:28:46;5.10;99.90
31084;DHT22;36333;51.382;0.016;2022-12-07T01:31:17;4.40;99.90
31084;DHT22;36333;51.382;0.016;2022-12-07T01:33:47;4.40;99.90
31084;DHT22;36333;51.382;0.016;2022-12-07T01:38:45;4.30;99.90
31084;DHT22;36333;51.382;0.016;2022-12-07T01:41:14;4.20;99.90
31084;DHT22;36333;51.382;0.016;2022-12-07T01:44:11;4.30;99.90
31084;DHT22;36333;51.382;0.016;2022-12-07T01:46:40;4.30;99.90
31084;DHT22;36333;51.382;0.016;2022-12-07T01:49:13;4.30;99.90
31084;DHT22;36333;51.382;0.016;2022-12-07T01:55:23;4.30;99.90
31084;DHT22;36333;51.382;0.016;2022-12-07T01:57:53;4.40;99.90
31084;DHT22;36333;51.382;0.016;2022-12-07T02:00:22;3.40;99.90
31084;DHT22;36333;51.382;0.016;2022-12-07T02:02:57;4.10;99.90
31084;DHT22;36333;51.382;0.016;2022-12-07T02:05:27;5.20;99.90
31084;DHT22;36333;51.382;0.016;2022-12-07T02:07:56;4.00;99.90
31084;DHT22;36333;51.382;0.016;2022-12-07T02:10:27;5.20;99.90
31084;DHT22;36333;51.382;0.016;2022-12-07T02:13:03;4.00;99.90
31084;DHT22;36333;51.382;0.016;2022-12-07T02:15:44;3.90;99.90
31084;DHT22;36333;51.382;0.016;2022-12-07T02:29:47;3.70;99.90
31084;DHT22;36333;51.382;0.016;2022-12-07T02:32:23;4.70;99.90
31084;DHT22;36333;51.382;0.016;2022-12-07T02:39:03;3.50;99.90
31084;DHT22;36333;51.382;0.016;2022-12-07T02:41:37;3.30;99.90
31084;DHT22;36333;51.382;0.016;2022-12-07T02:44:11;4.50;99.90
31084;DHT22;36333;51.382;0.016;2022-12-07T02:46:48;3.10;99.90
31084;DHT22;36333;51.382;0.016;2022-12-07T02:49:18;3.80;99.90
31084;DHT22;36333;51.382;0.016;2022-12-07T02:51:46;3.20;99.90
31084;DHT22;36333;51.382;0.016;2022-12-07T02:54:18;3.10;99.90
31084;DHT22;36333;51.382;0.016;2022-12-07T03:05:37;3.20;99.90
31084;DHT22;36333;51.382;0.016;2022-12-07T03:16:16;3.60;99.90
31084;DHT22;36333;51.382;0.016;2022-12-07T03:19:02;4.20;99.90
31084;DHT22;36333;51.382;0.016;2022-12-07T03:21:53;5.50;99.90
31084;DHT22;36333;51.382;0.016;2022-12-07T03:24:27;3.80;99.90
31084;DHT22;36333;51.382;0.016;2022-12-07T03:27:03;3.80;99.90
31084;DHT22;36333;51.382;0.016;2022-12-07T03:29:36;3.80;99.90
31084;DHT22;36333;51.382;0.016;2022-12-07T03:32:16;3.80;99.90
31084;DHT22;36333;51.382;0.016;2022-12-07T03:35:05;3.90;99.90
31084;DHT22;36333;51.382;0.016;2022-12-07T03:40:37;3.90;99.90
31084;DHT22;36333;51.382;0.016;2022-12-07T03:43:07;3.90;99.90
31084;DHT22;36333;51.382;0.016;2022-12-07T03:45:40;3.90;99.90
31084;DHT22;36333;51.382;0.016;2022-12-07T03:57:05;4.00;99.90
31084;DHT22;36333;51.382;0.016;2022-12-07T03:59:34;4.00;99.90
31084;DHT22;36333;51.382;0.016;2022-12-07T04:02:05;4.00;99.90
31084;DHT22;36333;51.382;0.016;2022-12-07T04:04:34;4.10;99.90
31084;DHT22;36333;51.382;0.016;2022-12-07T04:07:02;4.10;99.90
31084;DHT22;36333;51.382;0.016;2022-12-07T04:09:29;4.10;99.90
31084;DHT22;36333;51.382;0.016;2022-12-07T04:11:57;4.10;99.90
31084;DHT22;36333;51.382;0.016;2022-12-07T04:14:24;2.00;99.90
31084;DHT22;36333;51.382;0.016;2022-12-07T04:16:54;4.10;99.90
31084;DHT22;36333;51.382;0.016;2022-12-07T04:19:30;4.10;99.90
31084;DHT22;36333;51.382;0.016;2022-12-07T04:22:00;5.30;99.90
31084;DHT22;36333;51.382;0.016;2022-12-07T04:24:28;4.10;99.90
31084;DHT22;36333;51.382;0.016;2022-12-07T04:26:56;4.90;99.90
31084;DHT22;36333;51.382;0.016;2022-12-07T04:29:24;4.10;99.90
31084;DHT22;36333;51.382;0.016;2022-12-07T04:31:52;4.10;99.90
31084;DHT22;36333;51.382;0.016;2022-12-07T04:34:20;4.10;99.90
31084;DHT22;36333;51.382;0.016;2022-12-07T04:36:48;4.20;99.90
31084;DHT22;36333;51.382;0.016;2022-12-07T04:39:28;4.20;99.90
31084;DHT22;36333;51.382;0.016;2022-12-07T04:41:56;4.10;99.90
31084;DHT22;36333;51.382;0.016;2022-12-07T04:44:25;4.10;99.90
31084;DHT22;36333;51.382;0.016;2022-12-07T04:46:53;4.10;99.90
31084;DHT22;36333;51.382;0.016;2022-12-07T04:49:21;4.10;99.90
31084;DHT22;36333;51.382;0.016;2022-12-07T04:51:49;4.10;99.90
31084;DHT22;36333;51.382;0.016;2022-12-07T04:54:17;4.10;99.90
31084;DHT22;36333;51.382;0.016;2022-12-07T04:56:44;4.10;99.90
31084;DHT22;36333;51.382;0.016;2022-12-07T04:59:12;4.70;99.90
31084;DHT22;36333;51.382;0.016;2022-12-07T05:01:40;4.00;99.90
31084;DHT22;36333;51.382;0.016;2022-12-07T05:04:09;4.00;99.90
31084;DHT22;36333;51.382;0.016;2022-12-07T05:06:36;4.10;99.90
31084;DHT22;36333;51.382;0.016;2022-12-07T05:09:04;4.10;99.90
31084;DHT22;36333;51.382;0.016;2022-12-07T05:11:32;5.40;99.90
31084;DHT22;36333;51.382;0.016;2022-12-07T05:14:10;4.10;99.90
31084;DHT22;36333;51.382;0.016;2022-12-07T05:16:38;4.10;99.90
31084;DHT22;36333;51.382;0.016;2022-12-07T05:19:07;4.90;99.90
31084;DHT22;36333;51.382;0.016;2022-12-07T05:21:35;4.10;99.90
31084;DHT22;36333;51.382;0.016;2022-12-07T05:24:03;4.50;99.90
31084;DHT22;36333;51.382;0.016;2022-12-07T05:26:31;4.10;99.90
31084;DHT22;36333;51.382;0.016;2022-12-07T05:28:58;5.20;99.90
31084;DHT22;36333;51.382;0.016;2022-12-07T05:31:26;4.40;99.90
31084;DHT22;36333;51.382;0.016;2022-12-07T05:33:54;4.00;99.90
31084;DHT22;36333;51.382;0.016;2022-12-07T05:36:22;4.00;99.90
31084;DHT22;36333;51.382;0.016;2022-12-07T05:38:50;4.00;99.90
31084;DHT22;36333;51.382;0.016;2022-12-07T05:41:18;4.00;99.90
31084;DHT22;36333;51.382;0.016;2022-12-07T05:44:05;4.00;99.90
31084;DHT22;36333;51.382;0.016;2022-12-07T05:46:32;4.00;99.90
31084;DHT22;36333;51.382;0.016;2022-12-07T05:49:00;4.20;99.90
31084;DHT22;36333;51.382;0.016;2022-12-07T05:51:31;4.00;99.90
31084;DHT22;36333;51.382;0.016;2022-12-07T05:53:58;4.00;99.90
31084;DHT22;36333;51.382;0.016;2022-12-07T05:56:26;4.00;99.90
31084;DHT22;36333;51.382;0.016;2022-12-07T05:58:54;5.70;99.90
31084;DHT22;36333;51.382;0.016;2022-12-07T06:01:40;4.00;99.90
31084;DHT22;36333;51.382;0.016;2022-12-07T06:04:08;4.00;99.90
31084;DHT22;36333;51.382;0.016;2022-12-07T06:06:35;5.10;99.90
31084;DHT22;36333;51.382;0.016;2022-12-07T06:09:03;5.60;99.90
31084;DHT22;36333;51.382;0.016;2022-12-07T06:11:31;4.00;99.90
31084;DHT22;36333;51.382;0.016;2022-12-07T06:14:17;4.00;99.90
31084;DHT22;36333;51.382;0.016;2022-12-07T06:16:45;4.00;99.90
31084;DHT22;36333;51.382;0.016;2022-12-07T06:19:12;4.00;99.90
31084;DHT22;36333;51.382;0.016;2022-12-07T06:21:40;4.10;99.90
31084;DHT22;36333;51.382;0.016;2022-12-07T06:24:13;4.10;99.90
31084;DHT22;36333;51.382;0.016;2022-12-07T06:26:42;4.10;99.90
31084;DHT22;36333;51.382;0.016;2022-12-07T06:29:10;4.10;99.90
31084;DHT22;36333;51.382;0.016;2022-12-07T06:31:38;4.10;99.90
31084;DHT22;36333;51.382;0.016;2022-12-07T06:34:10;4.10;99.90
31084;DHT22;36333;51.382;0.016;2022-12-07T06:36:40;4.10;99.90
31084;DHT22;36333;51.382;0.016;2022-12-07T06:39:08;4.10;99.90
31084;DHT22;36333;51.382;0.016;2022-12-07T06:41:37;4.10;99.90
31084;DHT22;36333;51.382;0.016;2022-12-07T06:44:06;6.40;99.90
31084;DHT22;36333;51.382;0.016;2022-12-07T06:46:34;4.10;99.90
31084;DHT22;36333;51.382;0.016;2022-12-07T06:49:04;5.80;99.90
31084;DHT22;36333;51.382;0.016;2022-12-07T06:51:32;6.10;99.90
31084;DHT22;36333;51.382;0.016;2022-12-07T06:54:00;4.10;99.90
31084;DHT22;36333;51.382;0.016;2022-12-07T06:56:28;4.10;99.90
31084;DHT22;36333;51.382;0.016;2022-12-07T06:58:56;4.10;99.90
31084;DHT22;36333;51.382;0.016;2022-12-07T07:01:23;5.40;99.90
31084;DHT22;36333;51.382;0.016;2022-12-07T07:03:51;5.90;99.90
31084;DHT22;36333;51.382;0.016;2022-12-07T07:06:19;4.70;99.90
31084;DHT22;36333;51.382;0.016;2022-12-07T07:08:47;4.10;99.90
31084;DHT22;36333;51.382;0.016;2022-12-07T07:11:15;4.10;99.90
31084;DHT22;36333;51.382;0.016;2022-12-07T07:13:42;4.10;99.90
31084;DHT22;36333;51.382;0.016;2022-12-07T07:16:10;4.10;99.90
31084;DHT22;36333;51.382;0.016;2022-12-07T07:18:38;6.30;99.90
31084;DHT22;36333;51.382;0.016;2022-12-07T07:21:05;4.40;99.90
31084;DHT22;36333;51.382;0.016;2022-12-07T07:23:33;4.00;99.90
31084;DHT22;36333;51.382;0.016;2022-12-07T07:26:00;4.10;99.90
31084;DHT22;36333;51.382;0.016;2022-12-07T07:28:28;4.10;99.90
31084;DHT22;36333;51.382;0.016;2022-12-07T07:30:55;4.10;99.90
31084;DHT22;36333;51.382;0.016;2022-12-07T07:33:23;5.30;99.90
31084;DHT22;36333;51.382;0.016;2022-12-07T07:35:50;4.10;99.90
31084;DHT22;36333;51.382;0.016;2022-12-07T07:38:18;4.10;99.90
31084;DHT22;36333;51.382;0.016;2022-12-07T07:40:45;4.00;99.90
31084;DHT22;36333;51.382;0.016;2022-12-07T07:43:13;4.90;99.90
31084;DHT22;36333;51.382;0.016;2022-12-07T07:45:40;4.10;99.90
31084;DHT22;36333;51.382;0.016;2022-12-07T07:48:08;4.00;99.90
31084;DHT22;36333;51.382;0.016;2022-12-07T07:50:36;4.00;99.90
31084;DHT22;36333;51.382;0.016;2022-12-07T07:53:03;4.00;99.90
31084;DHT22;36333;51.382;0.016;2022-12-07T07:55:31;4.00;99.90
31084;DHT22;36333;51.382;0.016;2022-12-07T07:57:58;4.00;99.90
31084;DHT22;36333;51.382;0.016;2022-12-07T08:00:26;4.00;99.90
31084;DHT22;36333;51.382;0.016;2022-12-07T08:02:53;4.10;99.90
31084;DHT22;36333;51.382;0.016;2022-12-07T08:05:21;4.00;99.90
31084;DHT22;36333;51.382;0.016;2022-12-07T08:07:49;5.50;99.90
31084;DHT22;36333;51.382;0.016;2022-12-07T08:10:17;4.00;99.90
31084;DHT22;36333;51.382;0.016;2022-12-07T08:12:45;4.00;99.90
31084;DHT22;36333;51.382;0.016;2022-12-07T08:15:37;4.00;99.90
31084;DHT22;36333;51.382;0.016;2022-12-07T08:18:05;4.40;99.90
31084;DHT22;36333;51.382;0.016;2022-12-07T08:20:34;4.00;99.90
31084;DHT22;36333;51.382;0.016;2022-12-07T08:23:02;4.10;99.90
31084;DHT22;36333;51.382;0.016;2022-12-07T08:25:29;4.00;99.90
31084;DHT22;36333;51.382;0.016;2022-12-07T08:27:57;4.00;99.90
31084;DHT22;36333;51.382;0.016;2022-12-07T08:30:25;4.00;99.90
31084;DHT22;36333;51.382;0.016;2022-12-07T08:32:52;4.30;99.90
31084;DHT22;36333;51.382;0.016;2022-12-07T08:35:20;6.00;99.90
31084;DHT22;36333;51.382;0.016;2022-12-07T08:37:48;6.10;99.90
31084;DHT22;36333;51.382;0.016;2022-12-07T08:40:15;4.10;99.90
31084;DHT22;36333;51.382;0.016;2022-12-07T08:42:50;4.10;99.90
31084;DHT22;36333;51.382;0.016;2022-12-07T08:45:19;5.50;99.90
31084;DHT22;36333;51.382;0.016;2022-12-07T08:48:04;4.30;99.90
31084;DHT22;36333;51.382;0.016;2022-12-07T08:50:33;4.20;99.90
31084;DHT22;36333;51.382;0.016;2022-12-07T08:53:01;4.20;99.90
31084;DHT22;36333;51.382;0.016;2022-12-07T08:55:33;4.30;99.90
31084;DHT22;36333;51.382;0.016;2022-12-07T08:58:02;3.90;99.90
31084;DHT22;36333;51.382;0.016;2022-12-07T09:00:30;4.30;99.90
31084;DHT22;36333;51.382;0.016;2022-12-07T09:02:58;4.50;99.90
31084;DHT22;36333;51.382;0.016;2022-12-07T09:05:25;4.30;99.90
31084;DHT22;36333;51.382;0.016;2022-12-07T09:08:01;4.60;99.90
31084;DHT22;36333;51.382;0.016;2022-12-07T09:10:34;4.30;99.90
31084;DHT22;36333;51.382;0.016;2022-12-07T09:13:02;3.30;99.90
31084;DHT22;36333;51.382;0.016;2022-12-07T09:15:30;6.10;99.90
31084;DHT22;36333;51.382;0.016;2022-12-07T09:17:59;4.30;99.90
31084;DHT22;36333;51.382;0.016;2022-12-07T09:20:26;4.90;99.90
31084;DHT22;36333;51.382;0.016;2022-12-07T09:22:57;4.60;99.90
31084;DHT22;36333;51.382;0.016;2022-12-07T09:25:30;4.50;99.90
31084;DHT22;36333;51.382;0.016;2022-12-07T09:28:02;5.60;99.90
31084;DHT22;36333;51.382;0.016;2022-12-07T09:30:38;6.40;99.90
31084;DHT22;36333;51.382;0.016;2022-12-07T09:33:35;6.70;99.90
31084;DHT22;36333;51.382;0.016;2022-12-07T09:36:06;6.50;99.90
31084;DHT22;36333;51.382;0.016;2022-12-07T09:38:37;2.30;99.90
31084;DHT22;36333;51.382;0.016;2022-12-07T09:41:06;7.10;99.90
31084;DHT22;36333;51.382;0.016;2022-12-07T09:43:35;7.00;99.90
31084;DHT22;36333;51.382;0.016;2022-12-07T09:46:05;7.00;99.90
31084;DHT22;36333;51.382;0.016;2022-12-07T09:48:34;4.70;99.90
31084;DHT22;36333;51.382;0.016;2022-12-07T09:51:21;4.20;99.90
31084;DHT22;36333;51.382;0.016;2022-12-07T09:53:53;4.50;99.90
31084;DHT22;36333;51.382;0.016;2022-12-07T09:56:23;4.30;99.90
31084;DHT22;36333;51.382;0.016;2022-12-07T09:59:17;5.90;99.90
31084;DHT22;36333;51.382;0.016;2022-12-07T10:01:48;7.20;99.90
31084;DHT22;36333;51.382;0.016;2022-12-07T10:04:22;6.40;99.90
31084;DHT22;36333;51.382;0.016;2022-12-07T10:06:53;5.80;99.90
31084;DHT22;36333;51.382;0.016;2022-12-07T10:09:25;4.30;99.90
31084;DHT22;36333;51.382;0.016;2022-12-07T10:12:07;6.70;99.90
31084;DHT22;36333;51.382;0.016;2022-12-07T10:14:57;4.50;99.90
31084;DHT22;36333;51.382;0.016;2022-12-07T10:17:40;4.40;99.90
31084;DHT22;36333;51.382;0.016;2022-12-07T10:20:23;4.30;99.90
31084;DHT22;36333;51.382;0.016;2022-12-07T10:23:03;5.80;99.90
31084;DHT22;36333;51.382;0.016;2022-12-07T10:25:36;3.60;99.90
31084;DHT22;36333;51.382;0.016;2022-12-07T10:28:19;5.80;99.90
31084;DHT22;36333;51.382;0.016;2022-12-07T10:31:02;4.50;99.90
31084;DHT22;36333;51.382;0.016;2022-12-07T10:33:38;4.30;99.90
31084;DHT22;36333;51.382;0.016;2022-12-07T10:39:19;4.50;99.90
31084;DHT22;36333;51.382;0.016;2022-12-07T10:42:02;4.40;99.90
31084;DHT22;36333;51.382;0.016;2022-12-07T10:44:32;6.70;99.90
31084;DHT22;36333;51.382;0.016;2022-12-07T10:47:20;7.50;99.90
31084;DHT22;36333;51.382;0.016;2022-12-07T10:50:16;6.40;99.90
31084;DHT22;36333;51.382;0.016;2022-12-07T11:01:33;5.20;99.90
31084;DHT22;36333;51.382;0.016;2022-12-07T11:04:25;4.80;99.90
31084;DHT22;36333;51.382;0.016;2022-12-07T11:15:56;5.00;99.90
31084;DHT22;36333;51.382;0.016;2022-12-07T11:18:59;6.80;99.90
31084;DHT22;36333;51.382;0.016;2022-12-07T11:22:12;5.10;99.90
31084;DHT22;36333;51.382;0.016;2022-12-07T11:25:26;4.10;99.90
31084;DHT22;36333;51.382;0.016;2022-12-07T11:31:23;5.40;99.90
31084;DHT22;36333;51.382;0.016;2022-12-07T11:37:16;5.20;99.90
31084;DHT22;36333;51.382;0.016;2022-12-07T11:42:55;3.40;99.90
31084;DHT22;36333;51.382;0.016;2022-12-07T11:45:29;5.10;99.90
31084;DHT22;36333;51.382;0.016;2022-12-07T11:48:14;3.90;99.90
31084;DHT22;36333;51.382;0.016;2022-12-07T11:50:56;5.10;99.90
31084;DHT22;36333;51.382;0.016;2022-12-07T11:53:46;7.70;99.90
31084;DHT22;36333;51.382;0.016;2022-12-07T11:56:16;4.60;99.90
31084;DHT22;36333;51.382;0.016;2022-12-07T12:06:37;5.30;99.90
31084;DHT22;36333;51.382;0.016;2022-12-07T12:22:03;5.10;99.90
31084;DHT22;36333;51.382;0.016;2022-12-07T12:24:34;5.10;99.90
31084;DHT22;36333;51.382;0.016;2022-12-07T12:27:25;5.10;99.90
31084;DHT22;36333;51.382;0.016;2022-12-07T12:29:56;7.20;99.90
31084;DHT22;36333;51.382;0.016;2022-12-07T12:39:12;4.70;99.90
31084;DHT22;36333;51.382;0.016;2022-12-07T12:46:55;5.00;99.90
31084;DHT22;36333;51.382;0.016;2022-12-07T12:49:32;4.50;99.90
31084;DHT22;36333;51.382;0.016;2022-12-07T12:55:22;4.20;99.90
31084;DHT22;36333;51.382;0.016;2022-12-07T12:58:22;6.40;99.90
31084;DHT22;36333;51.382;0.016;2022-12-07T13:05:03;4.10;99.90
31084;DHT22;36333;51.382;0.016;2022-12-07T13:26:42;6.80;99.90
31084;DHT22;36333;51.382;0.016;2022-12-07T13:29:13;4.30;99.90
31084;DHT22;36333;51.382;0.016;2022-12-07T13:31:55;2.70;99.90
31084;DHT22;36333;51.382;0.016;2022-12-07T13:34:39;3.70;99.90
31084;DHT22;36333;51.382;0.016;2022-12-07T13:37:25;6.70;99.90
31084;DHT22;36333;51.382;0.016;2022-12-07T13:40:21;5.70;99.90
31084;DHT22;36333;51.382;0.016;2022-12-07T13:43:02;4.20;99.90
31084;DHT22;36333;51.382;0.016;2022-12-07T13:45:35;6.20;99.90
31084;DHT22;36333;51.382;0.016;2022-12-07T13:48:31;4.40;99.90
31084;DHT22;36333;51.382;0.016;2022-12-07T13:51:19;6.30;99.90
31084;DHT22;36333;51.382;0.016;2022-12-07T13:54:01;4.50;99.90
31084;DHT22;36333;51.382;0.016;2022-12-07T13:57:13;7.00;99.90
31084;DHT22;36333;51.382;0.016;2022-12-07T13:59:46;6.50;99.90
31084;DHT22;36333;51.382;0.016;2022-12-07T14:03:04;4.90;99.90
31084;DHT22;36333;51.382;0.016;2022-12-07T14:06:29;5.00;99.90
31084;DHT22;36333;51.382;0.016;2022-12-07T14:09:21;4.80;99.90
31084;DHT22;36333;51.382;0.016;2022-12-07T14:12:25;7.00;99.90
31084;DHT22;36333;51.382;0.016;2022-12-07T14:15:38;6.10;99.90
31084;DHT22;36333;51.382;0.016;2022-12-07T14:18:38;3.60;99.90
31084;DHT22;36333;51.382;0.016;2022-12-07T14:21:46;5.10;99.90
31084;DHT22;36333;51.382;0.016;2022-12-07T14:34:02;5.60;99.90
31084;DHT22;36333;51.382;0.016;2022-12-07T14:36:33;5.30;99.90
31084;DHT22;36333;51.382;0.016;2022-12-07T14:39:05;6.20;99.90
31084;DHT22;36333;51.382;0.016;2022-12-07T14:50:52;4.80;99.90
31084;DHT22;36333;51.382;0.016;2022-12-07T14:53:57;5.10;99.90
31084;DHT22;36333;51.382;0.016;2022-12-07T14:56:37;4.90;99.90
31084;DHT22;36333;51.382;0.016;2022-12-07T14:59:51;7.10;99.90
31084;DHT22;36333;51.382;0.016;2022-12-07T15:02:30;5.90;99.90
31084;DHT22;36333;51.382;0.016;2022-12-07T15:05:00;6.00;99.90
31084;DHT22;36333;51.382;0.016;2022-12-07T15:07:50;6.60;99.90
31084;DHT22;36333;51.382;0.016;2022-12-07T15:10:31;4.90;99.90
31084;DHT22;36333;51.382;0.016;2022-12-07T15:13:43;6.60;99.90
31084;DHT22;36333;51.382;0.016;2022-12-07T15:21:33;4.30;99.90
31084;DHT22;36333;51.382;0.016;2022-12-07T15:24:34;5.90;99.90
31084;DHT22;36333;51.382;0.016;2022-12-07T15:27:50;6.30;99.90
31084;DHT22;36333;51.382;0.016;2022-12-07T15:30:28;6.50;99.90
31084;DHT22;36333;51.382;0.016;2022-12-07T15:43:11;3.90;99.90
31084;DHT22;36333;51.382;0.016;2022-12-07T15:51:27;2.70;99.90
31084;DHT22;36333;51.382;0.016;2022-12-07T15:54:45;0.90;99.90
31084;DHT22;36333;51.382;0.016;2022-12-07T15:57:31;3.00;99.90
31084;DHT22;36333;51.382;0.016;2022-12-07T16:00:18;3.20;99.90
31084;DHT22;36333;51.382;0.016;2022-12-07T16:03:50;3.10;99.90
31084;DHT22;36333;51.382;0.016;2022-12-07T16:08:09;4.60;99.90
31084;DHT22;36333;51.382;0.016;2022-12-07T16:11:06;4.80;99.90
31084;DHT22;36333;51.382;0.016;2022-12-07T16:14:09;3.60;99.90
31084;DHT22;36333;51.382;0.016;2022-12-07T16:16:42;4.40;99.90
31084;DHT22;36333;51.382;0.016;2022-12-07T16:19:49;4.20;99.90
31084;DHT22;36333;51.382;0.016;2022-12-07T16:23:34;3.00;99.90
31084;DHT22;36333;51.382;0.016;2022-12-07T16:26:17;4.70;99.90
31084;DHT22;36333;51.382;0.016;2022-12-07T16:29:04;2.20;99.90
31084;DHT22;36333;51.382;0.016;2022-12-07T16:31:33;4.40;99.90
31084;DHT22;36333;51.382;0.016;2022-12-07T16:34:06;4.30;99.90
31084;DHT22;36333;51.382;0.016;2022-12-07T16:37:18;3.70;99.90
31084;DHT22;36333;51.382;0.016;2022-12-07T16:43:25;2.60;99.90
31084;DHT22;36333;51.382;0.016;2022-12-07T16:46:11;1.20;99.90
31084;DHT22;36333;51.382;0.016;2022-12-07T16:48:47;1.20;99.90
31084;DHT22;36333;51.382;0.016;2022-12-07T16:51:33;4.00;99.90
31084;DHT22;36333;51.382;0.016;2022-12-07T16:54:53;2.70;99.90
31084;DHT22;36333;51.382;0.016;2022-12-07T16:57:45;2.50;99.90
31084;DHT22;36333;51.382;0.016;2022-12-07T17:00:16;4.10;99.90
31084;DHT22;36333;51.382;0.016;2022-12-07T17:02:45;2.30;99.90
31084;DHT22;36333;51.382;0.016;2022-12-07T17:05:14;3.70;99.90
31084;DHT22;36333;51.382;0.016;2022-12-07T17:07:42;4.80;99.90
31084;DHT22;36333;51.382;0.016;2022-12-07T17:10:09;2.30;99.90
31084;DHT22;36333;51.382;0.016;2022-12-07T17:12:42;2.30;99.90
31084;DHT22;36333;51.382;0.016;2022-12-07T17:15:18;3.20;99.90
31084;DHT22;36333;51.382;0.016;2022-12-07T17:17:56;3.70;99.90
31084;DHT22;36333;51.382;0.016;2022-12-07T17:20:26;4.30;99.90
31084;DHT22;36333;51.382;0.016;2022-12-07T17:22:54;3.80;99.90
31084;DHT22;36333;51.382;0.016;2022-12-07T17:25:22;4.40;99.90
31084;DHT22;36333;51.382;0.016;2022-12-07T17:27:49;2.20;99.90
31084;DHT22;36333;51.382;0.016;2022-12-07T17:30:17;2.30;99.90
31084;DHT22;36333;51.382;0.016;2022-12-07T17:32:51;2.10;99.90
31084;DHT22;36333;51.382;0.016;2022-12-07T17:35:23;2.00;99.90
31084;DHT22;36333;51.382;0.016;2022-12-07T17:37:53;2.10;99.90
31084;DHT22;36333;51.382;0.016;2022-12-07T17:40:25;2.00;99.90
31084;DHT22;36333;51.382;0.016;2022-12-07T17:42:55;0.40;99.90
31084;DHT22;36333;51.382;0.016;2022-12-07T17:45:27;1.90;99.90
31084;DHT22;36333;51.382;0.016;2022-12-07T17:47:55;2.80;99.90
31084;DHT22;36333;51.382;0.016;2022-12-07T17:50:23;3.30;99.90
31084;DHT22;36333;51.382;0.016;2022-12-07T17:53:13;3.70;99.90
31084;DHT22;36333;51.382;0.016;2022-12-07T17:55:41;3.40;99.90
31084;DHT22;36333;51.382;0.016;2022-12-07T17:58:38;4.50;99.90
31084;DHT22;36333;51.382;0.016;2022-12-07T18:01:20;1.30;99.90
31084;DHT22;36333;51.382;0.016;2022-12-07T18:03:51;3.50;99.90
31084;DHT22;36333;51.382;0.016;2022-12-07T18:06:25;2.90;99.90
31084;DHT22;36333;51.382;0.016;2022-12-07T18:08:55;2.30;99.90
31084;DHT22;36333;51.382;0.016;2022-12-07T18:11:36;3.50;99.90
31084;DHT22;36333;51.382;0.016;2022-12-07T18:14:23;1.30;99.90
31084;DHT22;36333;51.382;0.016;2022-12-07T18:17:04;1.70;99.90
31084;DHT22;36333;51.382;0.016;2022-12-07T18:19:32;2.50;99.90
31084;DHT22;36333;51.382;0.016;2022-12-07T18:22:05;3.50;99.90
31084;DHT22;36333;51.382;0.016;2022-12-07T18:24:33;3.60;99.90
31084;DHT22;36333;51.382;0.016;2022-12-07T18:27:06;3.50;99.90
31084;DHT22;36333;51.382;0.016;2022-12-07T18:29:34;3.50;99.90
31084;DHT22;36333;51.382;0.016;2022-12-07T18:32:04;2.90;99.90
31084;DHT22;36333;51.382;0.016;2022-12-07T18:34:53;1.90;99.90
31084;DHT22;36333;51.382;0.016;2022-12-07T18:37:49;3.70;99.90
31084;DHT22;36333;51.382;0.016;2022-12-07T18:40:31;1.10;99.90
31084;DHT22;36333;51.382;0.016;2022-12-07T18:43:20;0.50;99.90
31084;DHT22;36333;51.382;0.016;2022-12-07T18:45:48;3.00;99.90
31084;DHT22;36333;51.382;0.016;2022-12-07T18:48:23;3.80;99.90
31084;DHT22;36333;51.382;0.016;2022-12-07T18:51:01;3.60;99.90
31084;DHT22;36333;51.382;0.016;2022-12-07T18:53:30;3.40;99.90
31084;DHT22;36333;51.382;0.016;2022-12-07T18:56:07;3.30;99.90
31084;DHT22;36333;51.382;0.016;2022-12-07T18:58:36;1.30;99.90
31084;DHT22;36333;51.382;0.016;2022-12-07T19:01:04;3.10;99.90
31084;DHT22;36333;51.382;0.016;2022-12-07T19:03:32;1.30;99.90
31084;DHT22;36333;51.382;0.016;2022-12-07T19:06:06;1.20;99.90
31084;DHT22;36333;51.382;0.016;2022-12-07T19:08:34;1.20;99.90
31084;DHT22;36333;51.382;0.016;2022-12-07T19:11:03;2.70;99.90
31084;DHT22;36333;51.382;0.016;2022-12-07T19:13:51;1.10;99.90
31084;DHT22;36333;51.382;0.016;2022-12-07T19:16:19;2.30;99.90
31084;DHT22;36333;51.382;0.016;2022-12-07T19:18:46;1.10;99.90
31084;DHT22;36333;51.382;0.016;2022-12-07T19:21:18;1.10;99.90
31084;DHT22;36333;51.382;0.016;2022-12-07T19:23:45;1.10;99.90
31084;DHT22;36333;51.382;0.016;2022-12-07T19:26:13;1.10;99.90
31084;DHT22;36333;51.382;0.016;2022-12-07T19:28:41;3.10;99.90
31084;DHT22;36333;51.382;0.016;2022-12-07T19:31:09;2.80;99.90
31084;DHT22;36333;51.382;0.016;2022-12-07T19:33:40;1.10;99.90
31084;DHT22;36333;51.382;0.016;2022-12-07T19:36:08;1.00;99.90
31084;DHT22;36333;51.382;0.016;2022-12-07T19:38:35;1.00;99.90
31084;DHT22;36333;51.382;0.016;2022-12-07T19:41:07;2.50;99.90
31084;DHT22;36333;51.382;0.016;2022-12-07T19:43:55;1.00;99.90